createdAt,value
2022-10-03T00:01:35.924Z,12.52
2022-10-03T00:04:18.699Z,12.50
2022-10-03T00:06:57.617Z,12.50
2022-10-03T00:09:36.799Z,12.49
2022-10-03T00:12:15.601Z,12.47
2022-10-03T00:14:55.318Z,12.45
2022-10-03T00:17:33.796Z,12.44
2022-10-03T00:20:11.941Z,12.43
2022-10-03T00:22:48.760Z,12.40
2022-10-03T00:25:35.028Z,12.39
2022-10-03T00:28:17.579Z,12.39
2022-10-03T00:30:57.623Z,12.39
2022-10-03T00:33:34.369Z,12.38
2022-10-03T00:36:09.510Z,12.36
2022-10-03T00:39:09.687Z,12.35
2022-10-03T00:42:04.926Z,12.28
2022-10-03T00:45:04.603Z,12.26
2022-10-03T00:48:06.453Z,12.20
2022-10-03T00:50:58.587Z,12.15
2022-10-03T00:53:48.450Z,12.12
2022-10-03T00:56:35.400Z,12.06
2022-10-03T00:59:15.111Z,12.03
2022-10-03T01:01:47.153Z,12.01
2022-10-03T01:04:54.603Z,11.96
2022-10-03T01:07:40.296Z,11.93
2022-10-03T01:10:20.099Z,11.91
2022-10-03T01:13:12.089Z,11.86
2022-10-03T01:15:49.690Z,11.84
2022-10-03T01:18:29.166Z,11.81
2022-10-03T01:21:06.387Z,11.79
2022-10-03T01:24:10.721Z,11.73
2022-10-03T01:26:53.609Z,11.70
2022-10-03T01:29:48.246Z,11.68
2022-10-03T01:32:21.374Z,11.66
2022-10-03T01:34:55.803Z,11.64
2022-10-03T01:37:31.285Z,11.61
2022-10-03T01:40:09.964Z,11.58
2022-10-03T01:42:45.000Z,11.57
2022-10-03T01:45:26.149Z,11.54
2022-10-03T01:48:00.682Z,11.51
2022-10-03T01:50:36.491Z,11.50
2022-10-03T01:53:13.546Z,11.47
2022-10-03T01:55:50.874Z,11.44
2022-10-03T01:58:27.139Z,11.41
2022-10-03T02:01:07.464Z,11.38
2022-10-03T02:03:40.412Z,11.38
2022-10-03T02:06:20.780Z,11.35
2022-10-03T02:08:57.525Z,11.34
2022-10-03T02:11:32.691Z,11.32
2022-10-03T02:14:14.698Z,11.28
2022-10-03T02:16:45.992Z,11.27
2022-10-03T02:19:23.629Z,11.23
2022-10-03T02:21:53.997Z,11.21
2022-10-03T02:24:39.699Z,11.17
2022-10-03T02:27:22.328Z,11.12
2022-10-03T02:30:06.061Z,11.08
2022-10-03T02:33:11.474Z,11.04
2022-10-03T02:36:20.397Z,11.02
2022-10-03T02:39:22.988Z,11.00
2022-10-03T02:42:25.167Z,11.02
2022-10-03T02:45:23.097Z,11.04
2022-10-03T02:48:31.288Z,11.03
2022-10-03T02:51:38.955Z,11.04
2022-10-03T02:54:38.800Z,11.04
2022-10-03T02:57:42.754Z,11.05
2022-10-03T03:00:13.599Z,11.08
2022-10-03T03:03:13.712Z,11.07
2022-10-03T03:06:17.943Z,11.05
2022-10-03T03:09:03.411Z,11.09
2022-10-03T03:12:02.170Z,11.10
2022-10-03T03:15:13.591Z,11.07
2022-10-03T03:17:49.426Z,11.11
2022-10-03T03:20:40.286Z,11.09
2022-10-03T03:23:55.236Z,11.05
2022-10-03T03:26:48.046Z,11.06
2022-10-03T03:29:27.128Z,11.08
2022-10-03T03:32:03.393Z,11.07
2022-10-03T03:34:39.336Z,11.04
2022-10-03T03:37:12.576Z,11.00
2022-10-03T03:39:58.479Z,10.97
2022-10-03T03:42:50.988Z,10.91
2022-10-03T03:45:43.449Z,10.87
2022-10-03T03:48:24.032Z,10.87
2022-10-03T03:51:12.095Z,10.83
2022-10-03T03:53:58.525Z,10.79
2022-10-03T03:56:47.289Z,10.74
2022-10-03T03:59:34.454Z,10.72
2022-10-03T04:02:21.616Z,10.69
2022-10-03T04:05:05.011Z,10.69
2022-10-03T04:07:49.325Z,10.68
2022-10-03T04:10:32.303Z,10.66
2022-10-03T04:13:32.089Z,10.62
2022-10-03T04:16:15.143Z,10.61
2022-10-03T04:19:04.382Z,10.60
2022-10-03T04:21:47.712Z,10.59
2022-10-03T04:24:45.614Z,10.57
2022-10-03T04:27:38.104Z,10.56
2022-10-03T04:30:15.773Z,10.56
2022-10-03T04:33:00.275Z,10.53
2022-10-03T04:36:09.607Z,10.48
2022-10-03T04:38:49.794Z,10.50
2022-10-03T04:41:28.633Z,10.49
2022-10-03T04:44:05.056Z,10.49
2022-10-03T04:46:40.722Z,10.48
2022-10-03T04:49:19.850Z,10.47
2022-10-03T04:51:55.946Z,10.47
2022-10-03T04:54:31.442Z,10.46
2022-10-03T04:57:06.161Z,10.45
2022-10-03T04:59:45.539Z,10.43
2022-10-03T05:02:26.854Z,10.44
2022-10-03T05:05:14.305Z,10.42
2022-10-03T05:07:50.912Z,10.43
2022-10-03T05:10:32.076Z,10.42
2022-10-03T05:13:11.365Z,10.43
2022-10-03T05:15:46.143Z,10.42
2022-10-03T05:18:25.971Z,10.42
2022-10-03T05:21:00.756Z,10.40
2022-10-03T05:23:41.249Z,10.39
2022-10-03T05:26:43.698Z,10.37
2022-10-03T05:29:16.206Z,10.36
2022-10-03T05:31:50.294Z,10.37
2022-10-03T05:34:33.933Z,10.36
2022-10-03T05:37:25.223Z,10.36
2022-10-03T05:39:57.816Z,10.38
2022-10-03T05:42:37.250Z,10.39
2022-10-03T05:45:23.380Z,10.42
2022-10-03T05:47:55.557Z,10.45
2022-10-03T05:50:58.303Z,10.47
2022-10-03T05:53:56.732Z,10.51
2022-10-03T05:56:38.942Z,10.57
2022-10-03T05:59:30.697Z,10.59
2022-10-03T06:02:22.446Z,10.57
2022-10-03T06:05:17.104Z,10.57
2022-10-03T06:08:05.871Z,10.57
2022-10-03T06:10:50.985Z,10.58
2022-10-03T06:13:30.523Z,10.60
2022-10-03T06:16:06.729Z,10.62
2022-10-03T06:18:57.759Z,10.65
2022-10-03T06:22:01.831Z,10.68
2022-10-03T06:25:13.793Z,10.73
2022-10-03T06:28:21.024Z,10.83
2022-10-03T06:31:12.281Z,10.89
2022-10-03T06:34:03.800Z,10.92
2022-10-03T06:36:55.301Z,10.94
2022-10-03T06:40:06.253Z,10.97
2022-10-03T06:43:02.117Z,11.01
2022-10-03T06:46:08.402Z,11.02
2022-10-03T06:49:24.272Z,11.01
2022-10-03T06:52:19.118Z,11.03
2022-10-03T06:55:33.149Z,11.07
2022-10-03T06:58:42.126Z,11.14
2022-10-03T07:01:53.578Z,11.19
2022-10-03T07:04:56.242Z,11.21
2022-10-03T07:08:09.328Z,11.25
2022-10-03T07:11:04.314Z,11.28
2022-10-03T07:13:52.891Z,11.35
2022-10-03T07:16:52.461Z,11.44
2022-10-03T07:19:45.444Z,11.53
2022-10-03T07:22:48.900Z,11.63
2022-10-03T07:25:57.159Z,11.76
2022-10-03T07:28:53.044Z,11.85
2022-10-03T07:31:38.171Z,11.91
2022-10-03T07:34:34.328Z,11.97
2022-10-03T07:37:35.320Z,12.04
2022-10-03T07:40:42.182Z,12.08
2022-10-03T07:43:37.791Z,12.15
2022-10-03T07:46:32.982Z,12.26
2022-10-03T07:49:26.654Z,12.30
2022-10-03T07:52:15.633Z,12.36
2022-10-03T07:55:16.230Z,12.56
2022-10-03T07:58:14.526Z,13.00
2022-10-03T08:01:00.263Z,13.32
2022-10-03T08:03:56.734Z,13.49
2022-10-03T08:06:35.372Z,13.53
2022-10-03T08:09:38.235Z,13.48
2022-10-03T08:12:42.236Z,13.61
2022-10-03T08:15:12.516Z,13.86
2022-10-03T08:18:18.777Z,14.04
2022-10-03T08:20:57.696Z,14.34
2022-10-03T08:23:54.203Z,14.56
2022-10-03T08:26:35.784Z,14.70
2022-10-03T08:29:21.939Z,14.75
2022-10-03T08:32:06.243Z,14.80
2022-10-03T08:35:18.761Z,14.75
2022-10-03T08:38:28.359Z,14.75
2022-10-03T08:41:37.474Z,14.81
2022-10-03T08:44:42.394Z,14.77
2022-10-03T08:47:32.973Z,14.85
2022-10-03T08:50:33.157Z,14.95
2022-10-03T08:53:40.083Z,15.12
2022-10-03T08:56:14.567Z,15.29
2022-10-03T08:59:25.043Z,15.48
2022-10-03T09:02:25.252Z,15.62
2022-10-03T09:05:29.537Z,15.75
2022-10-03T09:08:38.839Z,15.85
2022-10-03T09:11:49.260Z,16.00
2022-10-03T09:14:59.863Z,16.17
2022-10-03T09:17:54.096Z,16.35
2022-10-03T09:20:55.350Z,16.38
2022-10-03T09:23:59.334Z,16.46
2022-10-03T09:27:15.803Z,16.61
2022-10-03T09:30:21.072Z,16.75
2022-10-03T09:33:44.392Z,16.92
2022-10-03T09:36:40.109Z,17.15
2022-10-03T09:39:41.813Z,17.32
2022-10-03T09:42:51.193Z,17.30
2022-10-03T09:45:36.965Z,17.26
2022-10-03T09:48:37.082Z,17.26
2022-10-03T09:51:27.782Z,17.47
2022-10-03T09:54:24.886Z,17.66
2022-10-03T09:57:27.583Z,17.77
2022-10-03T10:00:25.401Z,17.79
2022-10-03T10:03:35.069Z,17.92
2022-10-03T10:06:13.441Z,18.15
2022-10-03T10:09:11.600Z,18.19
2022-10-03T10:12:05.333Z,18.33
2022-10-03T10:14:51.582Z,18.46
2022-10-03T10:17:55.038Z,18.51
2022-10-03T10:20:46.323Z,18.33
2022-10-03T10:23:32.885Z,18.21
2022-10-03T10:26:48.409Z,18.31
2022-10-03T10:29:31.304Z,18.47
2022-10-03T10:32:41.777Z,18.57
2022-10-03T10:35:44.551Z,18.73
2022-10-03T10:38:26.617Z,18.87
2022-10-03T10:41:31.525Z,18.87
2022-10-03T10:44:38.721Z,18.87
2022-10-03T10:47:14.332Z,18.94
2022-10-03T10:50:26.007Z,18.86
2022-10-03T10:53:40.126Z,18.84
2022-10-03T10:56:58.718Z,19.09
2022-10-03T11:00:16.297Z,19.31
2022-10-03T11:03:23.423Z,19.46
2022-10-03T11:06:42.996Z,19.68
2022-10-03T11:09:35.553Z,19.72
2022-10-03T11:12:51.989Z,19.72
2022-10-03T11:15:47.825Z,19.74
2022-10-03T11:19:14.959Z,19.77
2022-10-03T11:22:19.138Z,19.86
2022-10-03T11:25:23.533Z,19.85
2022-10-03T11:28:27.733Z,19.84
2022-10-03T11:31:44.523Z,19.88
2022-10-03T11:35:06.542Z,19.76
2022-10-03T11:37:43.395Z,19.75
2022-10-03T11:40:33.632Z,19.75
2022-10-03T11:43:35.319Z,19.84
2022-10-03T11:46:27.581Z,19.93
2022-10-03T11:49:01.191Z,20.04
2022-10-03T11:51:42.455Z,20.08
2022-10-03T11:54:31.686Z,20.09
2022-10-03T11:57:09.222Z,20.08
2022-10-03T12:00:00.403Z,20.11
2022-10-03T12:02:54.232Z,20.16
2022-10-03T12:05:33.446Z,20.24
2022-10-03T12:08:36.820Z,20.23
2022-10-03T12:11:14.053Z,20.30
2022-10-03T12:13:48.357Z,20.32
2022-10-03T12:16:29.055Z,20.29
2022-10-03T12:19:11.461Z,20.26
2022-10-03T12:21:52.408Z,20.29
2022-10-03T12:24:42.514Z,20.22
2022-10-03T12:27:24.460Z,20.28
2022-10-03T12:29:58.936Z,20.34
2022-10-03T12:32:38.858Z,20.33
2022-10-03T12:35:23.820Z,20.35
2022-10-03T12:38:10.239Z,20.42
2022-10-03T12:40:43.323Z,20.50
2022-10-03T12:43:29.679Z,20.53
2022-10-03T12:46:01.944Z,20.69
2022-10-03T12:48:45.956Z,20.71
2022-10-03T12:51:26.983Z,20.73
2022-10-03T12:54:08.381Z,20.68
2022-10-03T12:56:46.566Z,20.59
2022-10-03T12:59:24.698Z,20.61
2022-10-03T13:02:12.558Z,20.57
2022-10-03T13:04:47.727Z,20.58
2022-10-03T13:07:28.137Z,20.60
2022-10-03T13:10:11.065Z,20.63
2022-10-03T13:12:47.267Z,20.54
2022-10-03T13:15:43.325Z,20.37
2022-10-03T13:18:37.555Z,20.33
2022-10-03T13:21:27.135Z,20.42
2022-10-03T13:24:07.187Z,20.44
2022-10-03T13:26:48.520Z,20.43
2022-10-03T13:29:25.384Z,20.37
2022-10-03T13:32:16.528Z,20.29
2022-10-03T13:35:24.418Z,20.27
2022-10-03T13:38:36.766Z,20.25
2022-10-03T13:41:16.396Z,20.35
2022-10-03T13:43:50.928Z,20.41
2022-10-03T13:46:27.495Z,20.43
2022-10-03T13:49:02.334Z,20.51
2022-10-03T13:51:41.743Z,20.59
2022-10-03T13:54:16.195Z,20.69
2022-10-03T13:56:55.842Z,20.73
2022-10-03T13:59:48.681Z,20.75
2022-10-03T14:02:42.149Z,20.90
2022-10-03T14:05:41.550Z,20.75
2022-10-03T14:08:18.848Z,20.71
2022-10-03T14:11:23.422Z,20.70
2022-10-03T14:14:09.414Z,20.93
2022-10-03T14:16:42.691Z,21.06
2022-10-03T14:19:18.791Z,21.15
2022-10-03T14:22:04.298Z,21.11
2022-10-03T14:24:53.919Z,21.04
2022-10-03T14:27:37.303Z,21.05
2022-10-03T14:30:13.218Z,21.12
2022-10-03T14:32:51.460Z,21.12
2022-10-03T14:35:34.504Z,21.02
2022-10-03T14:38:18.985Z,20.99
2022-10-03T14:40:50.031Z,20.86
2022-10-03T14:43:38.323Z,20.69
2022-10-03T14:46:08.125Z,20.73
2022-10-03T14:48:39.281Z,20.66
2022-10-03T14:51:16.277Z,20.59
2022-10-03T14:53:48.870Z,20.57
2022-10-03T14:56:21.561Z,20.52
2022-10-03T14:58:52.820Z,20.46
2022-10-03T15:01:25.076Z,20.46
2022-10-03T15:04:02.787Z,20.48
2022-10-03T15:06:55.028Z,20.51
2022-10-03T15:09:26.787Z,20.49
2022-10-03T15:12:00.441Z,20.43
2022-10-03T15:14:31.000Z,20.40
2022-10-03T15:17:04.540Z,20.37
2022-10-03T15:19:44.454Z,20.30
2022-10-03T15:22:26.487Z,20.25
2022-10-03T15:24:57.513Z,20.20
2022-10-03T15:27:27.540Z,20.18
2022-10-03T15:29:59.556Z,20.18
2022-10-03T15:32:34.112Z,20.17
2022-10-03T15:35:03.756Z,20.18
2022-10-03T15:37:35.701Z,20.17
2022-10-03T15:40:09.599Z,20.18
2022-10-03T15:42:49.803Z,20.16
2022-10-03T15:45:29.477Z,20.15
2022-10-03T15:48:03.383Z,20.16
2022-10-03T15:50:33.563Z,20.12
2022-10-03T15:53:31.533Z,20.13
2022-10-03T15:56:02.645Z,20.10
2022-10-03T15:58:34.178Z,20.09
2022-10-03T16:01:08.709Z,20.01
2022-10-03T16:03:45.356Z,19.95
2022-10-03T16:06:19.356Z,19.91
2022-10-03T16:08:58.000Z,19.83
2022-10-03T16:11:29.229Z,19.81
2022-10-03T16:14:17.898Z,19.71
2022-10-03T16:16:50.685Z,19.61
2022-10-03T16:19:33.941Z,19.47
2022-10-03T16:22:24.371Z,19.44
2022-10-03T16:25:06.347Z,19.44
2022-10-03T16:27:37.584Z,19.48
2022-10-03T16:30:19.113Z,19.44
2022-10-03T16:32:54.114Z,19.42
2022-10-03T16:35:37.888Z,19.35
2022-10-03T16:38:21.348Z,19.34
2022-10-03T16:40:56.575Z,19.28
2022-10-03T16:43:26.084Z,19.20
2022-10-03T16:45:55.920Z,19.15
2022-10-03T16:48:45.870Z,19.12
2022-10-03T16:51:20.695Z,19.04
2022-10-03T16:53:51.218Z,18.97
2022-10-03T16:56:23.430Z,18.92
2022-10-03T16:58:54.032Z,18.84
2022-10-03T17:01:39.651Z,18.75
2022-10-03T17:04:21.454Z,18.70
2022-10-03T17:06:53.058Z,18.66
2022-10-03T17:09:31.939Z,18.59
2022-10-03T17:12:01.816Z,18.53
2022-10-03T17:14:37.108Z,18.45
2022-10-03T17:17:09.192Z,18.40
2022-10-03T17:19:42.106Z,18.37
2022-10-03T17:22:21.521Z,18.30
2022-10-03T17:24:54.546Z,18.28
2022-10-03T17:27:29.515Z,18.23
2022-10-03T17:30:02.336Z,18.19
2022-10-03T17:32:37.814Z,18.11
2022-10-03T17:35:13.210Z,18.06
2022-10-03T17:38:24.494Z,17.95
2022-10-03T17:41:11.777Z,17.92
2022-10-03T17:43:46.595Z,17.88
2022-10-03T17:46:21.289Z,17.83
2022-10-03T17:48:55.824Z,17.78
2022-10-03T17:51:39.397Z,17.70
2022-10-03T17:54:15.132Z,17.65
2022-10-03T17:56:47.911Z,17.57
2022-10-03T17:59:21.080Z,17.54
2022-10-03T18:01:52.985Z,17.48
2022-10-03T18:04:23.839Z,17.44
2022-10-03T18:06:55.381Z,17.41
2022-10-03T18:09:45.673Z,17.30
2022-10-03T18:12:24.635Z,17.26
2022-10-03T18:15:13.022Z,17.16
2022-10-03T18:17:58.310Z,17.11
2022-10-03T18:20:38.642Z,17.04
2022-10-03T18:23:11.418Z,16.98
2022-10-03T18:26:20.042Z,16.88
2022-10-03T18:28:58.443Z,16.83
2022-10-03T18:31:31.034Z,16.76
2022-10-03T18:34:12.846Z,16.69
2022-10-03T18:36:47.002Z,16.60
2022-10-03T18:39:18.777Z,16.54
2022-10-03T18:41:52.175Z,16.46
2022-10-03T18:44:22.955Z,16.42
2022-10-03T18:46:58.026Z,16.36
2022-10-03T18:49:33.860Z,16.29
2022-10-03T18:52:10.624Z,16.23
2022-10-03T18:54:49.512Z,16.18
2022-10-03T18:57:23.592Z,16.14
2022-10-03T18:59:57.515Z,16.11
2022-10-03T19:02:33.206Z,16.07
2022-10-03T19:05:08.536Z,16.04
2022-10-03T19:07:43.905Z,15.99
2022-10-03T19:10:34.963Z,15.93
2022-10-03T19:13:13.434Z,15.92
2022-10-03T19:16:02.518Z,15.88
2022-10-03T19:18:41.835Z,15.85
2022-10-03T19:21:18.648Z,15.81
2022-10-03T19:23:50.441Z,15.78
2022-10-03T19:26:25.736Z,15.74
2022-10-03T19:28:59.784Z,15.69
2022-10-03T19:31:32.302Z,15.64
2022-10-03T19:34:04.498Z,15.62
2022-10-03T19:36:35.977Z,15.57
2022-10-03T19:39:05.990Z,15.55
2022-10-03T19:41:38.814Z,15.52
2022-10-03T19:44:10.522Z,15.47
2022-10-03T19:47:00.036Z,15.38
2022-10-03T19:49:33.509Z,15.35
2022-10-03T19:52:19.321Z,15.30
2022-10-03T19:54:54.214Z,15.28
2022-10-03T19:57:27.336Z,15.24
2022-10-03T20:00:00.248Z,15.22
2022-10-03T20:02:29.925Z,15.17
2022-10-03T20:04:58.999Z,15.13
2022-10-03T20:07:41.798Z,15.07
2022-10-03T20:10:34.368Z,14.97
2022-10-03T20:13:03.971Z,14.95
2022-10-03T20:15:43.930Z,14.90
2022-10-03T20:18:21.034Z,14.89
2022-10-03T20:20:52.161Z,14.86
2022-10-03T20:23:22.760Z,14.86
2022-10-03T20:25:55.497Z,14.85
2022-10-03T20:28:30.447Z,14.82
2022-10-03T20:30:59.823Z,14.79
2022-10-03T20:33:30.760Z,14.77
2022-10-03T20:36:03.467Z,14.74
2022-10-03T20:39:02.607Z,14.68
2022-10-03T20:41:41.096Z,14.64
2022-10-03T20:44:17.829Z,14.62
2022-10-03T20:46:50.406Z,14.62
2022-10-03T20:49:32.668Z,14.60
2022-10-03T20:52:04.412Z,14.59
2022-10-03T20:54:37.397Z,14.57
2022-10-03T20:57:15.420Z,14.56
2022-10-03T20:59:47.402Z,14.55
2022-10-03T21:02:26.397Z,14.52
2022-10-03T21:04:59.790Z,14.53
2022-10-03T21:07:36.466Z,14.51
2022-10-03T21:10:16.378Z,14.48
2022-10-03T21:12:47.766Z,14.48
2022-10-03T21:15:30.678Z,14.44
2022-10-03T21:18:00.286Z,14.44
2022-10-03T21:20:33.729Z,14.42
2022-10-03T21:23:04.963Z,14.38
2022-10-03T21:25:35.654Z,14.32
2022-10-03T21:28:05.477Z,14.28
2022-10-03T21:30:55.168Z,14.21
2022-10-03T21:33:31.829Z,14.19
2022-10-03T21:36:10.018Z,14.16
2022-10-03T21:38:39.532Z,14.14
2022-10-03T21:41:27.957Z,14.07
2022-10-03T21:43:58.844Z,14.07
2022-10-03T21:46:37.746Z,14.03
2022-10-03T21:49:37.986Z,13.94
2022-10-03T21:52:29.719Z,13.90
2022-10-03T21:55:33.587Z,13.87
2022-10-03T21:58:21.113Z,13.86
2022-10-03T22:01:04.582Z,13.82
2022-10-03T22:03:39.039Z,13.82
2022-10-03T22:06:18.956Z,13.79
2022-10-03T22:08:48.781Z,13.78
2022-10-03T22:11:26.843Z,13.74
2022-10-03T22:14:02.293Z,13.70
2022-10-03T22:16:39.922Z,13.67
2022-10-03T22:19:16.081Z,13.64
2022-10-03T22:21:58.979Z,13.60
2022-10-03T22:24:35.854Z,13.58
2022-10-03T22:27:10.478Z,13.54
2022-10-03T22:29:48.038Z,13.51
2022-10-03T22:32:22.951Z,13.48
2022-10-03T22:34:59.060Z,13.45
2022-10-03T22:37:28.521Z,13.43
2022-10-03T22:40:00.285Z,13.39
2022-10-03T22:42:30.181Z,13.36
2022-10-03T22:44:58.640Z,13.33
2022-10-03T22:47:31.021Z,13.32
2022-10-03T22:50:03.403Z,13.31
2022-10-03T22:52:36.619Z,13.28
2022-10-03T22:55:06.828Z,13.27
2022-10-03T22:57:35.956Z,13.24
2022-10-03T23:00:08.768Z,13.23
2022-10-03T23:02:39.568Z,13.23
2022-10-03T23:05:10.955Z,13.21
2022-10-03T23:07:55.707Z,13.19
2022-10-03T23:10:44.583Z,13.20
2022-10-03T23:13:19.150Z,13.26
2022-10-03T23:15:52.859Z,13.29
2022-10-03T23:18:58.316Z,13.26
2022-10-03T23:21:26.361Z,13.30
2022-10-03T23:24:04.410Z,13.32
2022-10-03T23:26:48.210Z,13.32
2022-10-03T23:29:18.220Z,13.38
2022-10-03T23:31:58.829Z,13.38
2022-10-03T23:35:08.185Z,13.38
2022-10-03T23:37:45.679Z,13.41
2022-10-03T23:40:46.141Z,13.40
2022-10-03T23:43:37.229Z,13.41
2022-10-03T23:46:09.857Z,13.45
2022-10-03T23:48:44.305Z,13.46
2022-10-03T23:51:15.561Z,13.48
2022-10-03T23:53:47.302Z,13.50
2022-10-03T23:56:31.388Z,13.46
2022-10-03T23:59:12.359Z,13.46
